sensor_id;sensor_type;location;lat;lon;timestamp;P1;durP1;ratioP1;P2;durP2;ratioP2
12818;SDS011;6474;53.474;9.894;2022-08-19T00:01:22;1.42;;;1.42;;
12818;SDS011;6474;53.474;9.894;2022-08-19T00:03:55;1.65;;;1.60;;
12818;SDS011;6474;53.474;9.894;2022-08-19T00:06:23;1.45;;;1.38;;
12818;SDS011;6474;53.474;9.894;2022-08-19T00:08:51;1.30;;;1.30;;
12818;SDS011;6474;53.474;9.894;2022-08-19T00:11:19;1.50;;;1.50;;
12818;SDS011;6474;53.474;9.894;2022-08-19T00:13:52;1.30;;;1.30;;
12818;SDS011;6474;53.474;9.894;2022-08-19T00:16:22;1.58;;;1.58;;
12818;SDS011;6474;53.474;9.894;2022-08-19T00:18:52;1.70;;;1.70;;
12818;SDS011;6474;53.474;9.894;2022-08-19T00:21:20;1.58;;;1.58;;
12818;SDS011;6474;53.474;9.894;2022-08-19T00:23:47;1.33;;;1.33;;
12818;SDS011;6474;53.474;9.894;2022-08-19T00:26:15;1.58;;;1.58;;
12818;SDS011;6474;53.474;9.894;2022-08-19T00:28:43;1.95;;;1.85;;
12818;SDS011;6474;53.474;9.894;2022-08-19T00:31:12;1.30;;;1.30;;
12818;SDS011;6474;53.474;9.894;2022-08-19T00:33:42;1.60;;;1.50;;
12818;SDS011;6474;53.474;9.894;2022-08-19T00:36:10;1.60;;;1.60;;
12818;SDS011;6474;53.474;9.894;2022-08-19T00:38:39;1.60;;;1.60;;
12818;SDS011;6474;53.474;9.894;2022-08-19T00:41:09;1.77;;;1.77;;
12818;SDS011;6474;53.474;9.894;2022-08-19T00:43:37;1.90;;;1.80;;
12818;SDS011;6474;53.474;9.894;2022-08-19T00:46:06;1.58;;;1.48;;
12818;SDS011;6474;53.474;9.894;2022-08-19T00:48:35;1.65;;;1.55;;
12818;SDS011;6474;53.474;9.894;2022-08-19T00:51:04;1.88;;;1.77;;
12818;SDS011;6474;53.474;9.894;2022-08-19T00:53:33;1.23;;;1.23;;
12818;SDS011;6474;53.474;9.894;2022-08-19T00:56:01;1.50;;;1.50;;
12818;SDS011;6474;53.474;9.894;2022-08-19T00:58:34;1.25;;;1.25;;
12818;SDS011;6474;53.474;9.894;2022-08-19T01:01:03;1.80;;;1.80;;
12818;SDS011;6474;53.474;9.894;2022-08-19T01:03:31;1.15;;;1.15;;
12818;SDS011;6474;53.474;9.894;2022-08-19T01:06:20;1.40;;;1.40;;
12818;SDS011;6474;53.474;9.894;2022-08-19T01:08:48;1.38;;;1.30;;
12818;SDS011;6474;53.474;9.894;2022-08-19T01:11:16;1.15;;;1.15;;
12818;SDS011;6474;53.474;9.894;2022-08-19T01:13:44;1.42;;;1.42;;
12818;SDS011;6474;53.474;9.894;2022-08-19T01:16:15;1.33;;;1.33;;
12818;SDS011;6474;53.474;9.894;2022-08-19T01:18:45;1.58;;;1.48;;
12818;SDS011;6474;53.474;9.894;2022-08-19T01:21:16;1.25;;;1.25;;
12818;SDS011;6474;53.474;9.894;2022-08-19T01:23:48;1.52;;;1.42;;
12818;SDS011;6474;53.474;9.894;2022-08-19T01:26:17;1.55;;;1.45;;
12818;SDS011;6474;53.474;9.894;2022-08-19T01:28:49;1.70;;;1.70;;
12818;SDS011;6474;53.474;9.894;2022-08-19T01:31:22;1.55;;;1.55;;
12818;SDS011;6474;53.474;9.894;2022-08-19T01:33:54;1.48;;;1.38;;
12818;SDS011;6474;53.474;9.894;2022-08-19T01:36:24;1.52;;;1.52;;
12818;SDS011;6474;53.474;9.894;2022-08-19T01:38:56;1.55;;;1.50;;
12818;SDS011;6474;53.474;9.894;2022-08-19T01:41:25;1.60;;;1.60;;
12818;SDS011;6474;53.474;9.894;2022-08-19T01:43:53;1.38;;;1.38;;
12818;SDS011;6474;53.474;9.894;2022-08-19T01:46:42;1.60;;;1.60;;
12818;SDS011;6474;53.474;9.894;2022-08-19T01:49:11;1.92;;;1.88;;
12818;SDS011;6474;53.474;9.894;2022-08-19T01:51:39;1.40;;;1.40;;
12818;SDS011;6474;53.474;9.894;2022-08-19T01:54:08;1.80;;;1.80;;
12818;SDS011;6474;53.474;9.894;2022-08-19T01:56:37;1.40;;;1.40;;
12818;SDS011;6474;53.474;9.894;2022-08-19T01:59:08;2.00;;;2.00;;
12818;SDS011;6474;53.474;9.894;2022-08-19T02:01:39;1.70;;;1.70;;
12818;SDS011;6474;53.474;9.894;2022-08-19T02:04:07;1.50;;;1.50;;
12818;SDS011;6474;53.474;9.894;2022-08-19T02:06:35;1.73;;;1.60;;
12818;SDS011;6474;53.474;9.894;2022-08-19T02:09:04;1.63;;;1.52;;
12818;SDS011;6474;53.474;9.894;2022-08-19T02:11:35;1.33;;;1.33;;
12818;SDS011;6474;53.474;9.894;2022-08-19T02:14:05;1.63;;;1.63;;
12818;SDS011;6474;53.474;9.894;2022-08-19T02:16:35;2.55;;;1.50;;
12818;SDS011;6474;53.474;9.894;2022-08-19T02:19:03;1.70;;;1.70;;
12818;SDS011;6474;53.474;9.894;2022-08-19T02:21:32;1.92;;;1.83;;
12818;SDS011;6474;53.474;9.894;2022-08-19T02:24:00;1.38;;;1.38;;
12818;SDS011;6474;53.474;9.894;2022-08-19T02:26:28;1.90;;;1.80;;
12818;SDS011;6474;53.474;9.894;2022-08-19T02:28:57;1.55;;;1.55;;
12818;SDS011;6474;53.474;9.894;2022-08-19T02:31:26;2.38;;;2.00;;
12818;SDS011;6474;53.474;9.894;2022-08-19T02:33:55;2.28;;;2.00;;
12818;SDS011;6474;53.474;9.894;2022-08-19T02:36:24;1.88;;;1.88;;
12818;SDS011;6474;53.474;9.894;2022-08-19T02:38:52;1.83;;;1.83;;
12818;SDS011;6474;53.474;9.894;2022-08-19T02:41:22;2.83;;;2.72;;
12818;SDS011;6474;53.474;9.894;2022-08-19T02:43:52;2.28;;;2.28;;
12818;SDS011;6474;53.474;9.894;2022-08-19T02:46:41;2.65;;;2.55;;
12818;SDS011;6474;53.474;9.894;2022-08-19T02:49:11;2.78;;;2.67;;
12818;SDS011;6474;53.474;9.894;2022-08-19T02:51:39;2.67;;;2.58;;
12818;SDS011;6474;53.474;9.894;2022-08-19T02:54:09;2.03;;;1.92;;
12818;SDS011;6474;53.474;9.894;2022-08-19T02:56:39;3.13;;;2.85;;
12818;SDS011;6474;53.474;9.894;2022-08-19T02:59:08;4.20;;;2.70;;
12818;SDS011;6474;53.474;9.894;2022-08-19T03:01:38;2.47;;;2.38;;
12818;SDS011;6474;53.474;9.894;2022-08-19T03:04:10;2.35;;;2.35;;
12818;SDS011;6474;53.474;9.894;2022-08-19T03:06:42;2.97;;;2.53;;
12818;SDS011;6474;53.474;9.894;2022-08-19T03:09:11;2.25;;;2.15;;
12818;SDS011;6474;53.474;9.894;2022-08-19T03:11:40;2.83;;;2.63;;
12818;SDS011;6474;53.474;9.894;2022-08-19T03:14:08;2.15;;;2.05;;
12818;SDS011;6474;53.474;9.894;2022-08-19T03:16:40;2.47;;;2.30;;
12818;SDS011;6474;53.474;9.894;2022-08-19T03:19:10;3.53;;;2.65;;
12818;SDS011;6474;53.474;9.894;2022-08-19T03:21:39;2.17;;;2.17;;
12818;SDS011;6474;53.474;9.894;2022-08-19T03:24:08;2.80;;;2.58;;
12818;SDS011;6474;53.474;9.894;2022-08-19T03:26:38;2.53;;;2.40;;
12818;SDS011;6474;53.474;9.894;2022-08-19T03:29:06;2.65;;;2.53;;
12818;SDS011;6474;53.474;9.894;2022-08-19T03:31:39;2.00;;;2.00;;
12818;SDS011;6474;53.474;9.894;2022-08-19T03:34:21;3.70;;;2.65;;
12818;SDS011;6474;53.474;9.894;2022-08-19T03:36:53;2.33;;;2.22;;
12818;SDS011;6474;53.474;9.894;2022-08-19T03:39:22;2.97;;;2.78;;
12818;SDS011;6474;53.474;9.894;2022-08-19T03:41:51;3.00;;;2.80;;
12818;SDS011;6474;53.474;9.894;2022-08-19T03:44:43;2.28;;;2.22;;
12818;SDS011;6474;53.474;9.894;2022-08-19T03:47:11;2.28;;;2.15;;
12818;SDS011;6474;53.474;9.894;2022-08-19T03:49:43;2.72;;;2.63;;
12818;SDS011;6474;53.474;9.894;2022-08-19T03:52:13;2.38;;;2.28;;
12818;SDS011;6474;53.474;9.894;2022-08-19T03:54:41;2.70;;;2.50;;
12818;SDS011;6474;53.474;9.894;2022-08-19T03:57:09;2.40;;;2.30;;
12818;SDS011;6474;53.474;9.894;2022-08-19T03:59:38;3.00;;;2.90;;
12818;SDS011;6474;53.474;9.894;2022-08-19T04:02:07;2.70;;;2.50;;
12818;SDS011;6474;53.474;9.894;2022-08-19T04:04:37;2.22;;;2.15;;
12818;SDS011;6474;53.474;9.894;2022-08-19T04:07:08;2.88;;;2.67;;
12818;SDS011;6474;53.474;9.894;2022-08-19T04:09:37;2.17;;;2.17;;
12818;SDS011;6474;53.474;9.894;2022-08-19T04:12:05;3.65;;;2.40;;
12818;SDS011;6474;53.474;9.894;2022-08-19T04:14:34;2.30;;;2.20;;
12818;SDS011;6474;53.474;9.894;2022-08-19T04:17:02;2.28;;;2.28;;
12818;SDS011;6474;53.474;9.894;2022-08-19T04:19:32;2.40;;;2.20;;
12818;SDS011;6474;53.474;9.894;2022-08-19T04:22:01;2.03;;;2.03;;
12818;SDS011;6474;53.474;9.894;2022-08-19T04:24:31;2.55;;;2.38;;
12818;SDS011;6474;53.474;9.894;2022-08-19T04:27:00;1.83;;;1.83;;
12818;SDS011;6474;53.474;9.894;2022-08-19T04:29:30;3.10;;;2.90;;
12818;SDS011;6474;53.474;9.894;2022-08-19T04:31:58;3.55;;;2.80;;
12818;SDS011;6474;53.474;9.894;2022-08-19T04:34:34;2.88;;;2.40;;
12818;SDS011;6474;53.474;9.894;2022-08-19T04:37:23;4.47;;;2.40;;
12818;SDS011;6474;53.474;9.894;2022-08-19T04:40:01;3.08;;;2.75;;
12818;SDS011;6474;53.474;9.894;2022-08-19T04:42:49;2.92;;;2.72;;
12818;SDS011;6474;53.474;9.894;2022-08-19T04:45:17;2.88;;;2.20;;
12818;SDS011;6474;53.474;9.894;2022-08-19T04:47:48;2.10;;;2.10;;
12818;SDS011;6474;53.474;9.894;2022-08-19T04:50:36;2.60;;;2.50;;
12818;SDS011;6474;53.474;9.894;2022-08-19T04:53:07;2.97;;;2.60;;
12818;SDS011;6474;53.474;9.894;2022-08-19T04:55:39;2.83;;;2.53;;
12818;SDS011;6474;53.474;9.894;2022-08-19T04:58:08;2.75;;;2.55;;
12818;SDS011;6474;53.474;9.894;2022-08-19T05:00:38;3.10;;;2.67;;
12818;SDS011;6474;53.474;9.894;2022-08-19T05:03:06;3.17;;;2.97;;
12818;SDS011;6474;53.474;9.894;2022-08-19T05:05:37;2.65;;;2.55;;
12818;SDS011;6474;53.474;9.894;2022-08-19T05:08:10;3.05;;;2.95;;
12818;SDS011;6474;53.474;9.894;2022-08-19T05:10:41;2.63;;;2.53;;
12818;SDS011;6474;53.474;9.894;2022-08-19T05:13:10;2.70;;;2.60;;
12818;SDS011;6474;53.474;9.894;2022-08-19T05:15:38;2.78;;;2.67;;
12818;SDS011;6474;53.474;9.894;2022-08-19T05:18:06;3.60;;;2.63;;
12818;SDS011;6474;53.474;9.894;2022-08-19T05:20:51;3.17;;;2.97;;
12818;SDS011;6474;53.474;9.894;2022-08-19T05:23:40;2.67;;;2.50;;
12818;SDS011;6474;53.474;9.894;2022-08-19T05:26:09;2.55;;;2.38;;
12818;SDS011;6474;53.474;9.894;2022-08-19T05:28:37;2.80;;;2.70;;
12818;SDS011;6474;53.474;9.894;2022-08-19T05:31:05;2.75;;;2.58;;
12818;SDS011;6474;53.474;9.894;2022-08-19T05:33:33;2.63;;;2.42;;
12818;SDS011;6474;53.474;9.894;2022-08-19T05:36:01;2.20;;;2.20;;
12818;SDS011;6474;53.474;9.894;2022-08-19T05:38:30;3.42;;;3.05;;
12818;SDS011;6474;53.474;9.894;2022-08-19T05:40:58;2.88;;;2.78;;
12818;SDS011;6474;53.474;9.894;2022-08-19T05:43:28;2.97;;;2.45;;
12818;SDS011;6474;53.474;9.894;2022-08-19T05:45:55;2.75;;;2.65;;
12818;SDS011;6474;53.474;9.894;2022-08-19T05:48:23;2.45;;;2.20;;
12818;SDS011;6474;53.474;9.894;2022-08-19T05:50:51;2.50;;;2.40;;
12818;SDS011;6474;53.474;9.894;2022-08-19T05:53:19;4.05;;;3.05;;
12818;SDS011;6474;53.474;9.894;2022-08-19T05:55:47;2.53;;;2.42;;
12818;SDS011;6474;53.474;9.894;2022-08-19T05:58:15;2.63;;;2.53;;
12818;SDS011;6474;53.474;9.894;2022-08-19T06:00:49;2.60;;;2.50;;
12818;SDS011;6474;53.474;9.894;2022-08-19T06:03:18;5.15;;;2.65;;
12818;SDS011;6474;53.474;9.894;2022-08-19T06:05:46;2.67;;;2.63;;
12818;SDS011;6474;53.474;9.894;2022-08-19T06:08:17;3.13;;;3.00;;
12818;SDS011;6474;53.474;9.894;2022-08-19T06:11:11;2.72;;;2.63;;
12818;SDS011;6474;53.474;9.894;2022-08-19T06:13:41;2.72;;;2.60;;
12818;SDS011;6474;53.474;9.894;2022-08-19T06:16:11;2.63;;;2.53;;
12818;SDS011;6474;53.474;9.894;2022-08-19T06:18:38;2.40;;;2.30;;
12818;SDS011;6474;53.474;9.894;2022-08-19T06:21:06;2.60;;;2.53;;
12818;SDS011;6474;53.474;9.894;2022-08-19T06:23:34;2.15;;;2.05;;
12818;SDS011;6474;53.474;9.894;2022-08-19T06:26:02;2.53;;;2.45;;
12818;SDS011;6474;53.474;9.894;2022-08-19T06:28:32;1.92;;;1.92;;
12818;SDS011;6474;53.474;9.894;2022-08-19T06:31:05;2.35;;;2.05;;
12818;SDS011;6474;53.474;9.894;2022-08-19T06:33:35;2.67;;;2.58;;
12818;SDS011;6474;53.474;9.894;2022-08-19T06:36:04;2.38;;;2.28;;
12818;SDS011;6474;53.474;9.894;2022-08-19T06:38:32;2.53;;;2.42;;
12818;SDS011;6474;53.474;9.894;2022-08-19T06:41:01;2.75;;;1.90;;
12818;SDS011;6474;53.474;9.894;2022-08-19T06:43:33;2.05;;;1.95;;
12818;SDS011;6474;53.474;9.894;2022-08-19T06:46:09;1.80;;;1.80;;
12818;SDS011;6474;53.474;9.894;2022-08-19T06:48:41;2.38;;;2.28;;
12818;SDS011;6474;53.474;9.894;2022-08-19T06:51:11;1.80;;;1.80;;
12818;SDS011;6474;53.474;9.894;2022-08-19T06:53:44;1.98;;;1.98;;
12818;SDS011;6474;53.474;9.894;2022-08-19T06:56:13;2.03;;;2.00;;
12818;SDS011;6474;53.474;9.894;2022-08-19T06:58:42;1.65;;;1.65;;
12818;SDS011;6474;53.474;9.894;2022-08-19T07:01:10;1.95;;;1.85;;
12818;SDS011;6474;53.474;9.894;2022-08-19T07:03:38;1.90;;;1.90;;
12818;SDS011;6474;53.474;9.894;2022-08-19T07:06:09;1.90;;;1.90;;
12818;SDS011;6474;53.474;9.894;2022-08-19T07:08:58;1.50;;;1.50;;
12818;SDS011;6474;53.474;9.894;2022-08-19T07:11:26;1.67;;;1.67;;
12818;SDS011;6474;53.474;9.894;2022-08-19T07:13:54;1.83;;;1.83;;
12818;SDS011;6474;53.474;9.894;2022-08-19T07:16:22;1.67;;;1.67;;
12818;SDS011;6474;53.474;9.894;2022-08-19T07:18:56;1.77;;;1.77;;
12818;SDS011;6474;53.474;9.894;2022-08-19T07:21:25;2.30;;;2.20;;
12818;SDS011;6474;53.474;9.894;2022-08-19T07:23:55;1.85;;;1.73;;
12818;SDS011;6474;53.474;9.894;2022-08-19T07:26:31;1.58;;;1.58;;
12818;SDS011;6474;53.474;9.894;2022-08-19T07:29:02;1.58;;;1.58;;
12818;SDS011;6474;53.474;9.894;2022-08-19T07:31:30;1.88;;;1.77;;
12818;SDS011;6474;53.474;9.894;2022-08-19T07:34:04;1.83;;;1.80;;
12818;SDS011;6474;53.474;9.894;2022-08-19T07:36:34;1.98;;;1.88;;
12818;SDS011;6474;53.474;9.894;2022-08-19T07:39:05;1.65;;;1.65;;
12818;SDS011;6474;53.474;9.894;2022-08-19T07:41:35;1.85;;;1.80;;
12818;SDS011;6474;53.474;9.894;2022-08-19T07:44:04;1.83;;;1.83;;
12818;SDS011;6474;53.474;9.894;2022-08-19T07:46:34;1.58;;;1.58;;
12818;SDS011;6474;53.474;9.894;2022-08-19T07:49:07;1.52;;;1.52;;
12818;SDS011;6474;53.474;9.894;2022-08-19T07:51:44;1.80;;;1.80;;
12818;SDS011;6474;53.474;9.894;2022-08-19T07:54:13;2.20;;;2.03;;
12818;SDS011;6474;53.474;9.894;2022-08-19T07:56:41;1.63;;;1.52;;
12818;SDS011;6474;53.474;9.894;2022-08-19T07:59:09;2.30;;;2.20;;
12818;SDS011;6474;53.474;9.894;2022-08-19T08:01:38;1.98;;;1.98;;
12818;SDS011;6474;53.474;9.894;2022-08-19T08:04:08;1.80;;;1.80;;
12818;SDS011;6474;53.474;9.894;2022-08-19T08:06:53;2.05;;;2.05;;
12818;SDS011;6474;53.474;9.894;2022-08-19T08:09:41;2.25;;;2.17;;
12818;SDS011;6474;53.474;9.894;2022-08-19T08:12:17;1.80;;;1.80;;
12818;SDS011;6474;53.474;9.894;2022-08-19T08:15:00;2.10;;;2.10;;
12818;SDS011;6474;53.474;9.894;2022-08-19T08:17:33;2.00;;;2.00;;
12818;SDS011;6474;53.474;9.894;2022-08-19T08:20:18;1.98;;;1.98;;
12818;SDS011;6474;53.474;9.894;2022-08-19T08:22:46;2.10;;;2.00;;
12818;SDS011;6474;53.474;9.894;2022-08-19T08:25:33;2.13;;;2.03;;
12818;SDS011;6474;53.474;9.894;2022-08-19T08:28:02;2.00;;;2.00;;
12818;SDS011;6474;53.474;9.894;2022-08-19T08:30:31;2.17;;;2.17;;
12818;SDS011;6474;53.474;9.894;2022-08-19T08:33:02;1.90;;;1.90;;
12818;SDS011;6474;53.474;9.894;2022-08-19T08:35:32;2.50;;;2.40;;
12818;SDS011;6474;53.474;9.894;2022-08-19T08:38:00;2.30;;;2.20;;
12818;SDS011;6474;53.474;9.894;2022-08-19T08:40:30;2.15;;;2.10;;
12818;SDS011;6474;53.474;9.894;2022-08-19T08:43:06;2.22;;;2.13;;
12818;SDS011;6474;53.474;9.894;2022-08-19T08:45:38;2.75;;;2.65;;
12818;SDS011;6474;53.474;9.894;2022-08-19T08:48:20;2.58;;;2.17;;
12818;SDS011;6474;53.474;9.894;2022-08-19T08:50:53;5.30;;;2.47;;
12818;SDS011;6474;53.474;9.894;2022-08-19T08:53:23;2.13;;;2.13;;
12818;SDS011;6474;53.474;9.894;2022-08-19T08:55:58;2.22;;;2.13;;
12818;SDS011;6474;53.474;9.894;2022-08-19T08:58:29;2.53;;;2.28;;
12818;SDS011;6474;53.474;9.894;2022-08-19T09:01:09;2.20;;;2.10;;
12818;SDS011;6474;53.474;9.894;2022-08-19T09:03:39;2.20;;;2.10;;
12818;SDS011;6474;53.474;9.894;2022-08-19T09:06:13;4.35;;;2.30;;
12818;SDS011;6474;53.474;9.894;2022-08-19T09:08:48;1.90;;;1.90;;
12818;SDS011;6474;53.474;9.894;2022-08-19T09:11:25;2.50;;;2.50;;
12818;SDS011;6474;53.474;9.894;2022-08-19T09:14:18;2.50;;;2.40;;
12818;SDS011;6474;53.474;9.894;2022-08-19T09:17:16;1.90;;;1.80;;
12818;SDS011;6474;53.474;9.894;2022-08-19T09:19:49;2.30;;;2.20;;
12818;SDS011;6474;53.474;9.894;2022-08-19T09:22:20;2.05;;;2.05;;
12818;SDS011;6474;53.474;9.894;2022-08-19T09:24:52;2.10;;;2.05;;
12818;SDS011;6474;53.474;9.894;2022-08-19T09:27:21;2.08;;;2.08;;
12818;SDS011;6474;53.474;9.894;2022-08-19T09:30:10;2.13;;;2.13;;
12818;SDS011;6474;53.474;9.894;2022-08-19T09:32:41;3.08;;;2.40;;
12818;SDS011;6474;53.474;9.894;2022-08-19T09:35:09;2.72;;;2.60;;
12818;SDS011;6474;53.474;9.894;2022-08-19T09:37:40;2.05;;;2.05;;
12818;SDS011;6474;53.474;9.894;2022-08-19T09:40:09;2.60;;;2.50;;
12818;SDS011;6474;53.474;9.894;2022-08-19T09:42:38;2.38;;;2.28;;
12818;SDS011;6474;53.474;9.894;2022-08-19T09:45:18;3.10;;;2.90;;
12818;SDS011;6474;53.474;9.894;2022-08-19T09:47:48;2.38;;;2.28;;
12818;SDS011;6474;53.474;9.894;2022-08-19T09:50:20;2.40;;;2.15;;
12818;SDS011;6474;53.474;9.894;2022-08-19T09:52:50;2.33;;;2.22;;
12818;SDS011;6474;53.474;9.894;2022-08-19T09:55:23;2.33;;;2.22;;
12818;SDS011;6474;53.474;9.894;2022-08-19T09:57:57;2.50;;;2.40;;
12818;SDS011;6474;53.474;9.894;2022-08-19T10:00:26;2.92;;;2.80;;
12818;SDS011;6474;53.474;9.894;2022-08-19T10:02:54;4.97;;;3.63;;
12818;SDS011;6474;53.474;9.894;2022-08-19T10:05:21;2.80;;;2.70;;
12818;SDS011;6474;53.474;9.894;2022-08-19T10:08:12;3.35;;;3.15;;
12818;SDS011;6474;53.474;9.894;2022-08-19T10:10:40;2.88;;;2.78;;
12818;SDS011;6474;53.474;9.894;2022-08-19T10:13:12;2.45;;;2.35;;
12818;SDS011;6474;53.474;9.894;2022-08-19T10:15:41;2.75;;;2.58;;
12818;SDS011;6474;53.474;9.894;2022-08-19T10:18:14;3.58;;;3.40;;
12818;SDS011;6474;53.474;9.894;2022-08-19T10:20:44;3.75;;;3.55;;
12818;SDS011;6474;53.474;9.894;2022-08-19T10:23:18;3.30;;;3.20;;
12818;SDS011;6474;53.474;9.894;2022-08-19T10:25:48;4.95;;;3.88;;
12818;SDS011;6474;53.474;9.894;2022-08-19T10:28:19;4.60;;;4.20;;
12818;SDS011;6474;53.474;9.894;2022-08-19T10:30:48;4.13;;;3.92;;
12818;SDS011;6474;53.474;9.894;2022-08-19T10:33:16;3.47;;;3.35;;
12818;SDS011;6474;53.474;9.894;2022-08-19T10:36:05;3.60;;;3.42;;
12818;SDS011;6474;53.474;9.894;2022-08-19T10:38:37;3.78;;;3.63;;
12818;SDS011;6474;53.474;9.894;2022-08-19T10:41:18;4.13;;;3.92;;
12818;SDS011;6474;53.474;9.894;2022-08-19T10:43:50;4.57;;;4.18;;
12818;SDS011;6474;53.474;9.894;2022-08-19T10:46:21;5.25;;;4.85;;
12818;SDS011;6474;53.474;9.894;2022-08-19T10:48:50;5.20;;;4.78;;
12818;SDS011;6474;53.474;9.894;2022-08-19T10:51:18;5.70;;;4.78;;
12818;SDS011;6474;53.474;9.894;2022-08-19T10:54:15;4.45;;;4.05;;
12818;SDS011;6474;53.474;9.894;2022-08-19T10:56:56;6.20;;;4.65;;
12818;SDS011;6474;53.474;9.894;2022-08-19T10:59:24;3.85;;;3.65;;
12818;SDS011;6474;53.474;9.894;2022-08-19T11:01:59;3.63;;;3.45;;
12818;SDS011;6474;53.474;9.894;2022-08-19T11:04:28;3.00;;;2.75;;
12818;SDS011;6474;53.474;9.894;2022-08-19T11:06:58;3.08;;;2.90;;
12818;SDS011;6474;53.474;9.894;2022-08-19T11:09:27;4.65;;;4.25;;
12818;SDS011;6474;53.474;9.894;2022-08-19T11:11:59;4.55;;;4.25;;
12818;SDS011;6474;53.474;9.894;2022-08-19T11:14:30;4.30;;;4.00;;
12818;SDS011;6474;53.474;9.894;2022-08-19T11:16:59;4.18;;;3.88;;
12818;SDS011;6474;53.474;9.894;2022-08-19T11:19:28;4.38;;;4.07;;
12818;SDS011;6474;53.474;9.894;2022-08-19T11:21:56;4.47;;;4.13;;
12818;SDS011;6474;53.474;9.894;2022-08-19T11:24:30;4.35;;;4.05;;
12818;SDS011;6474;53.474;9.894;2022-08-19T11:27:00;4.68;;;4.28;;
12818;SDS011;6474;53.474;9.894;2022-08-19T11:29:31;4.40;;;4.20;;
12818;SDS011;6474;53.474;9.894;2022-08-19T11:32:02;4.10;;;3.90;;
12818;SDS011;6474;53.474;9.894;2022-08-19T11:34:31;4.07;;;3.92;;
12818;SDS011;6474;53.474;9.894;2022-08-19T11:37:01;3.80;;;3.60;;
12818;SDS011;6474;53.474;9.894;2022-08-19T11:39:31;4.30;;;3.80;;
12818;SDS011;6474;53.474;9.894;2022-08-19T11:42:02;3.50;;;3.30;;
12818;SDS011;6474;53.474;9.894;2022-08-19T11:44:53;4.72;;;4.32;;
12818;SDS011;6474;53.474;9.894;2022-08-19T11:47:21;4.45;;;4.15;;
12818;SDS011;6474;53.474;9.894;2022-08-19T11:49:50;4.03;;;3.88;;
12818;SDS011;6474;53.474;9.894;2022-08-19T11:52:19;4.60;;;4.20;;
12818;SDS011;6474;53.474;9.894;2022-08-19T11:54:48;4.90;;;4.45;;
12818;SDS011;6474;53.474;9.894;2022-08-19T11:57:16;5.20;;;4.75;;
12818;SDS011;6474;53.474;9.894;2022-08-19T11:59:48;3.83;;;3.63;;
12818;SDS011;6474;53.474;9.894;2022-08-19T12:02:17;4.32;;;4.00;;
12818;SDS011;6474;53.474;9.894;2022-08-19T12:04:45;4.15;;;3.85;;
12818;SDS011;6474;53.474;9.894;2022-08-19T12:07:14;3.47;;;3.28;;
12818;SDS011;6474;53.474;9.894;2022-08-19T12:09:42;3.70;;;3.50;;
12818;SDS011;6474;53.474;9.894;2022-08-19T12:12:12;4.35;;;4.05;;
12818;SDS011;6474;53.474;9.894;2022-08-19T12:14:40;3.95;;;3.75;;
12818;SDS011;6474;53.474;9.894;2022-08-19T12:17:08;3.90;;;3.70;;
12818;SDS011;6474;53.474;9.894;2022-08-19T12:19:39;4.32;;;4.05;;
12818;SDS011;6474;53.474;9.894;2022-08-19T12:22:06;5.70;;;4.35;;
12818;SDS011;6474;53.474;9.894;2022-08-19T12:24:34;4.20;;;3.95;;
12818;SDS011;6474;53.474;9.894;2022-08-19T12:27:02;4.18;;;3.88;;
12818;SDS011;6474;53.474;9.894;2022-08-19T12:29:39;4.82;;;4.32;;
12818;SDS011;6474;53.474;9.894;2022-08-19T12:32:07;5.38;;;4.88;;
12818;SDS011;6474;53.474;9.894;2022-08-19T12:34:37;5.32;;;4.60;;
12818;SDS011;6474;53.474;9.894;2022-08-19T12:37:06;3.97;;;3.67;;
12818;SDS011;6474;53.474;9.894;2022-08-19T12:39:36;4.25;;;3.95;;
12818;SDS011;6474;53.474;9.894;2022-08-19T12:42:05;3.63;;;3.42;;
12818;SDS011;6474;53.474;9.894;2022-08-19T12:44:34;4.72;;;4.43;;
12818;SDS011;6474;53.474;9.894;2022-08-19T12:47:11;4.53;;;4.28;;
12818;SDS011;6474;53.474;9.894;2022-08-19T12:49:41;4.43;;;4.22;;
12818;SDS011;6474;53.474;9.894;2022-08-19T12:52:20;3.58;;;3.38;;
12818;SDS011;6474;53.474;9.894;2022-08-19T12:54:49;3.58;;;3.42;;
12818;SDS011;6474;53.474;9.894;2022-08-19T12:57:20;3.30;;;3.20;;
12818;SDS011;6474;53.474;9.894;2022-08-19T12:59:57;3.85;;;3.65;;
12818;SDS011;6474;53.474;9.894;2022-08-19T13:02:27;3.72;;;3.53;;
12818;SDS011;6474;53.474;9.894;2022-08-19T13:05:04;4.60;;;4.28;;
12818;SDS011;6474;53.474;9.894;2022-08-19T13:07:34;4.05;;;3.75;;
12818;SDS011;6474;53.474;9.894;2022-08-19T13:10:03;3.83;;;3.60;;
12818;SDS011;6474;53.474;9.894;2022-08-19T13:12:32;3.45;;;3.35;;
12818;SDS011;6474;53.474;9.894;2022-08-19T13:15:00;3.80;;;3.60;;
12818;SDS011;6474;53.474;9.894;2022-08-19T13:17:37;3.85;;;3.55;;
12818;SDS011;6474;53.474;9.894;2022-08-19T13:20:06;3.20;;;3.08;;
12818;SDS011;6474;53.474;9.894;2022-08-19T13:22:36;2.97;;;2.72;;
12818;SDS011;6474;53.474;9.894;2022-08-19T13:25:05;3.08;;;2.97;;
12818;SDS011;6474;53.474;9.894;2022-08-19T13:27:34;3.20;;;3.00;;
12818;SDS011;6474;53.474;9.894;2022-08-19T13:30:02;3.30;;;3.20;;
12818;SDS011;6474;53.474;9.894;2022-08-19T13:32:51;3.72;;;3.63;;
12818;SDS011;6474;53.474;9.894;2022-08-19T13:35:38;3.03;;;2.92;;
12818;SDS011;6474;53.474;9.894;2022-08-19T13:38:06;3.47;;;3.30;;
12818;SDS011;6474;53.474;9.894;2022-08-19T13:40:37;3.20;;;3.10;;
12818;SDS011;6474;53.474;9.894;2022-08-19T13:43:07;2.58;;;2.47;;
12818;SDS011;6474;53.474;9.894;2022-08-19T13:45:47;3.30;;;3.08;;
12818;SDS011;6474;53.474;9.894;2022-08-19T13:48:17;2.80;;;2.60;;
12818;SDS011;6474;53.474;9.894;2022-08-19T13:50:45;2.97;;;2.88;;
12818;SDS011;6474;53.474;9.894;2022-08-19T13:53:14;3.33;;;3.13;;
12818;SDS011;6474;53.474;9.894;2022-08-19T13:55:43;2.63;;;2.53;;
12818;SDS011;6474;53.474;9.894;2022-08-19T13:58:11;2.58;;;2.58;;
12818;SDS011;6474;53.474;9.894;2022-08-19T14:00:42;2.92;;;2.83;;
12818;SDS011;6474;53.474;9.894;2022-08-19T14:03:12;2.90;;;2.80;;
12818;SDS011;6474;53.474;9.894;2022-08-19T14:05:41;2.60;;;2.50;;
12818;SDS011;6474;53.474;9.894;2022-08-19T14:08:09;3.53;;;3.42;;
12818;SDS011;6474;53.474;9.894;2022-08-19T14:10:40;3.15;;;2.97;;
12818;SDS011;6474;53.474;9.894;2022-08-19T14:13:12;3.03;;;2.83;;
12818;SDS011;6474;53.474;9.894;2022-08-19T14:15:41;4.53;;;3.50;;
12818;SDS011;6474;53.474;9.894;2022-08-19T14:18:10;2.63;;;2.42;;
12818;SDS011;6474;53.474;9.894;2022-08-19T14:20:38;2.63;;;2.53;;
12818;SDS011;6474;53.474;9.894;2022-08-19T14:23:07;2.60;;;2.53;;
12818;SDS011;6474;53.474;9.894;2022-08-19T14:25:36;3.08;;;2.97;;
12818;SDS011;6474;53.474;9.894;2022-08-19T14:28:04;2.70;;;2.60;;
12818;SDS011;6474;53.474;9.894;2022-08-19T14:30:36;2.50;;;2.40;;
12818;SDS011;6474;53.474;9.894;2022-08-19T14:33:07;3.13;;;2.97;;
12818;SDS011;6474;53.474;9.894;2022-08-19T14:35:37;2.65;;;2.60;;
12818;SDS011;6474;53.474;9.894;2022-08-19T14:38:16;3.03;;;2.92;;
12818;SDS011;6474;53.474;9.894;2022-08-19T14:41:05;3.05;;;2.85;;
12818;SDS011;6474;53.474;9.894;2022-08-19T14:43:34;2.63;;;2.53;;
12818;SDS011;6474;53.474;9.894;2022-08-19T14:46:02;2.50;;;2.40;;
12818;SDS011;6474;53.474;9.894;2022-08-19T14:48:30;3.17;;;2.97;;
12818;SDS011;6474;53.474;9.894;2022-08-19T14:50:58;2.95;;;2.85;;
12818;SDS011;6474;53.474;9.894;2022-08-19T14:53:28;2.28;;;2.17;;
12818;SDS011;6474;53.474;9.894;2022-08-19T14:55:55;2.60;;;2.50;;
12818;SDS011;6474;53.474;9.894;2022-08-19T14:58:23;2.30;;;2.30;;
12818;SDS011;6474;53.474;9.894;2022-08-19T15:00:55;2.33;;;2.30;;
12818;SDS011;6474;53.474;9.894;2022-08-19T15:03:24;2.10;;;2.10;;
12818;SDS011;6474;53.474;9.894;2022-08-19T15:05:52;2.20;;;2.20;;
12818;SDS011;6474;53.474;9.894;2022-08-19T15:08:21;2.15;;;2.05;;
12818;SDS011;6474;53.474;9.894;2022-08-19T15:10:52;2.65;;;2.65;;
12818;SDS011;6474;53.474;9.894;2022-08-19T15:13:20;2.63;;;2.50;;
12818;SDS011;6474;53.474;9.894;2022-08-19T15:15:48;2.72;;;2.63;;
12818;SDS011;6474;53.474;9.894;2022-08-19T15:18:16;2.50;;;2.40;;
12818;SDS011;6474;53.474;9.894;2022-08-19T15:20:43;2.42;;;2.40;;
12818;SDS011;6474;53.474;9.894;2022-08-19T15:23:15;2.22;;;2.22;;
12818;SDS011;6474;53.474;9.894;2022-08-19T15:25:44;2.17;;;2.17;;